sensor_id;sensor_type;location;lat;lon;timestamp;P1;durP1;ratioP1;P2;durP2;ratioP2
9759;SDS011;4919;48.792;9.202;2023-03-02T00:01:03;34.93;;;19.20;;
9759;SDS011;4919;48.792;9.202;2023-03-02T00:03:50;32.73;;;17.87;;
9759;SDS011;4919;48.792;9.202;2023-03-02T00:06:35;29.80;;;16.80;;
9759;SDS011;4919;48.792;9.202;2023-03-02T00:09:21;28.70;;;15.53;;
9759;SDS011;4919;48.792;9.202;2023-03-02T00:12:06;28.03;;;15.67;;
9759;SDS011;4919;48.792;9.202;2023-03-02T00:14:51;24.77;;;14.47;;
9759;SDS011;4919;48.792;9.202;2023-03-02T00:17:36;23.43;;;12.70;;
9759;SDS011;4919;48.792;9.202;2023-03-02T00:20:21;22.27;;;13.13;;
9759;SDS011;4919;48.792;9.202;2023-03-02T00:23:06;24.47;;;13.30;;
9759;SDS011;4919;48.792;9.202;2023-03-02T00:25:50;21.83;;;12.63;;
9759;SDS011;4919;48.792;9.202;2023-03-02T00:28:35;23.80;;;13.40;;
9759;SDS011;4919;48.792;9.202;2023-03-02T00:31:20;23.47;;;13.17;;
9759;SDS011;4919;48.792;9.202;2023-03-02T00:34:05;23.93;;;12.83;;
9759;SDS011;4919;48.792;9.202;2023-03-02T00:36:50;21.17;;;13.37;;
9759;SDS011;4919;48.792;9.202;2023-03-02T00:39:34;27.30;;;13.33;;
9759;SDS011;4919;48.792;9.202;2023-03-02T00:42:20;27.13;;;13.87;;
9759;SDS011;4919;48.792;9.202;2023-03-02T00:45:05;21.30;;;12.57;;
9759;SDS011;4919;48.792;9.202;2023-03-02T00:47:50;25.00;;;13.37;;
9759;SDS011;4919;48.792;9.202;2023-03-02T00:50:35;21.57;;;13.17;;
9759;SDS011;4919;48.792;9.202;2023-03-02T00:53:21;21.07;;;12.87;;
9759;SDS011;4919;48.792;9.202;2023-03-02T00:56:07;25.07;;;14.10;;
9759;SDS011;4919;48.792;9.202;2023-03-02T00:58:52;21.90;;;14.00;;
9759;SDS011;4919;48.792;9.202;2023-03-02T01:01:37;22.37;;;13.43;;
9759;SDS011;4919;48.792;9.202;2023-03-02T01:04:43;21.97;;;13.87;;
9759;SDS011;4919;48.792;9.202;2023-03-02T01:07:27;27.50;;;15.03;;
9759;SDS011;4919;48.792;9.202;2023-03-02T01:10:12;22.73;;;14.53;;
9759;SDS011;4919;48.792;9.202;2023-03-02T01:12:57;24.97;;;14.77;;
9759;SDS011;4919;48.792;9.202;2023-03-02T01:15:41;26.53;;;15.50;;
9759;SDS011;4919;48.792;9.202;2023-03-02T01:18:24;23.30;;;14.53;;
9759;SDS011;4919;48.792;9.202;2023-03-02T01:21:11;29.03;;;16.10;;
9759;SDS011;4919;48.792;9.202;2023-03-02T01:23:56;20.97;;;14.30;;
9759;SDS011;4919;48.792;9.202;2023-03-02T01:26:41;25.00;;;14.63;;
9759;SDS011;4919;48.792;9.202;2023-03-02T01:29:26;24.57;;;15.10;;
9759;SDS011;4919;48.792;9.202;2023-03-02T01:32:11;26.27;;;14.80;;
9759;SDS011;4919;48.792;9.202;2023-03-02T01:34:56;26.57;;;15.00;;
9759;SDS011;4919;48.792;9.202;2023-03-02T01:37:41;26.37;;;15.63;;
9759;SDS011;4919;48.792;9.202;2023-03-02T01:40:25;29.33;;;15.70;;
9759;SDS011;4919;48.792;9.202;2023-03-02T01:43:12;29.97;;;16.97;;
9759;SDS011;4919;48.792;9.202;2023-03-02T01:51:42;30.40;;;16.37;;
9759;SDS011;4919;48.792;9.202;2023-03-02T01:54:29;29.60;;;15.43;;
9759;SDS011;4919;48.792;9.202;2023-03-02T01:57:15;26.17;;;15.97;;
9759;SDS011;4919;48.792;9.202;2023-03-02T02:00:05;27.17;;;15.30;;
9759;SDS011;4919;48.792;9.202;2023-03-02T02:02:51;27.90;;;16.00;;
9759;SDS011;4919;48.792;9.202;2023-03-02T02:05:41;24.50;;;15.67;;
9759;SDS011;4919;48.792;9.202;2023-03-02T02:08:28;28.63;;;16.53;;
9759;SDS011;4919;48.792;9.202;2023-03-02T02:11:14;24.20;;;15.50;;
9759;SDS011;4919;48.792;9.202;2023-03-02T02:13:59;28.00;;;15.40;;
9759;SDS011;4919;48.792;9.202;2023-03-02T02:16:45;24.90;;;14.40;;
9759;SDS011;4919;48.792;9.202;2023-03-02T02:22:33;24.23;;;15.13;;
9759;SDS011;4919;48.792;9.202;2023-03-02T02:25:44;26.70;;;15.90;;
9759;SDS011;4919;48.792;9.202;2023-03-02T02:31:53;23.43;;;15.13;;
9759;SDS011;4919;48.792;9.202;2023-03-02T02:38:03;26.20;;;15.63;;
9759;SDS011;4919;48.792;9.202;2023-03-02T02:40:57;25.03;;;15.40;;
9759;SDS011;4919;48.792;9.202;2023-03-02T02:43:46;25.10;;;15.47;;
9759;SDS011;4919;48.792;9.202;2023-03-02T02:46:31;23.90;;;15.20;;
9759;SDS011;4919;48.792;9.202;2023-03-02T02:52:18;30.93;;;15.70;;
9759;SDS011;4919;48.792;9.202;2023-03-02T02:55:05;24.53;;;15.20;;
9759;SDS011;4919;48.792;9.202;2023-03-02T02:57:56;23.77;;;15.03;;
9759;SDS011;4919;48.792;9.202;2023-03-02T03:00:44;28.43;;;15.37;;
9759;SDS011;4919;48.792;9.202;2023-03-02T03:03:33;26.30;;;14.93;;
9759;SDS011;4919;48.792;9.202;2023-03-02T03:06:24;26.30;;;15.13;;
9759;SDS011;4919;48.792;9.202;2023-03-02T03:09:11;25.97;;;15.33;;
9759;SDS011;4919;48.792;9.202;2023-03-02T03:11:58;24.97;;;14.70;;
9759;SDS011;4919;48.792;9.202;2023-03-02T03:14:51;24.20;;;14.80;;
9759;SDS011;4919;48.792;9.202;2023-03-02T03:17:36;25.00;;;14.50;;
9759;SDS011;4919;48.792;9.202;2023-03-02T03:20:22;26.03;;;15.77;;
9759;SDS011;4919;48.792;9.202;2023-03-02T03:23:07;23.07;;;14.00;;
9759;SDS011;4919;48.792;9.202;2023-03-02T03:25:52;23.73;;;14.70;;
9759;SDS011;4919;48.792;9.202;2023-03-02T03:28:37;29.43;;;15.97;;
9759;SDS011;4919;48.792;9.202;2023-03-02T03:31:23;26.17;;;15.40;;
9759;SDS011;4919;48.792;9.202;2023-03-02T03:34:09;25.43;;;14.93;;
9759;SDS011;4919;48.792;9.202;2023-03-02T03:36:55;26.37;;;15.63;;
9759;SDS011;4919;48.792;9.202;2023-03-02T03:39:40;24.57;;;14.53;;
9759;SDS011;4919;48.792;9.202;2023-03-02T03:42:25;23.50;;;15.00;;
9759;SDS011;4919;48.792;9.202;2023-03-02T03:45:10;23.57;;;14.60;;
9759;SDS011;4919;48.792;9.202;2023-03-02T03:47:55;25.10;;;14.87;;
9759;SDS011;4919;48.792;9.202;2023-03-02T03:50:41;23.23;;;14.57;;
9759;SDS011;4919;48.792;9.202;2023-03-02T03:53:26;25.97;;;15.27;;
9759;SDS011;4919;48.792;9.202;2023-03-02T03:56:11;23.83;;;15.00;;
9759;SDS011;4919;48.792;9.202;2023-03-02T03:58:55;27.00;;;15.87;;
9759;SDS011;4919;48.792;9.202;2023-03-02T04:01:42;22.97;;;14.47;;
9759;SDS011;4919;48.792;9.202;2023-03-02T04:04:35;27.27;;;16.03;;
9759;SDS011;4919;48.792;9.202;2023-03-02T04:07:20;27.70;;;16.00;;
9759;SDS011;4919;48.792;9.202;2023-03-02T04:10:06;32.00;;;18.03;;
9759;SDS011;4919;48.792;9.202;2023-03-02T04:12:51;45.37;;;23.60;;
9759;SDS011;4919;48.792;9.202;2023-03-02T04:15:37;41.17;;;22.83;;
9759;SDS011;4919;48.792;9.202;2023-03-02T04:18:22;59.50;;;27.93;;
9759;SDS011;4919;48.792;9.202;2023-03-02T04:21:07;39.80;;;19.73;;
9759;SDS011;4919;48.792;9.202;2023-03-02T04:23:52;32.03;;;17.50;;
9759;SDS011;4919;48.792;9.202;2023-03-02T04:26:38;28.80;;;16.83;;
9759;SDS011;4919;48.792;9.202;2023-03-02T04:29:24;28.77;;;15.47;;
9759;SDS011;4919;48.792;9.202;2023-03-02T04:32:10;24.60;;;15.47;;
9759;SDS011;4919;48.792;9.202;2023-03-02T04:34:55;27.23;;;16.03;;
9759;SDS011;4919;48.792;9.202;2023-03-02T04:37:40;25.13;;;15.33;;
9759;SDS011;4919;48.792;9.202;2023-03-02T04:40:25;26.83;;;15.67;;
9759;SDS011;4919;48.792;9.202;2023-03-02T04:43:11;24.73;;;15.33;;
9759;SDS011;4919;48.792;9.202;2023-03-02T04:45:55;24.53;;;15.27;;
9759;SDS011;4919;48.792;9.202;2023-03-02T04:48:40;24.40;;;15.60;;
9759;SDS011;4919;48.792;9.202;2023-03-02T04:51:28;28.33;;;15.90;;
9759;SDS011;4919;48.792;9.202;2023-03-02T04:54:24;26.87;;;15.67;;
9759;SDS011;4919;48.792;9.202;2023-03-02T04:57:10;25.87;;;15.23;;
9759;SDS011;4919;48.792;9.202;2023-03-02T04:59:55;25.87;;;15.73;;
9759;SDS011;4919;48.792;9.202;2023-03-02T05:02:40;25.47;;;15.40;;
9759;SDS011;4919;48.792;9.202;2023-03-02T05:05:25;26.13;;;15.90;;
9759;SDS011;4919;48.792;9.202;2023-03-02T05:08:10;27.50;;;16.40;;
9759;SDS011;4919;48.792;9.202;2023-03-02T05:10:55;26.20;;;15.50;;
9759;SDS011;4919;48.792;9.202;2023-03-02T05:13:40;30.30;;;17.27;;
9759;SDS011;4919;48.792;9.202;2023-03-02T05:16:26;28.63;;;16.53;;
9759;SDS011;4919;48.792;9.202;2023-03-02T05:19:12;27.70;;;17.07;;
9759;SDS011;4919;48.792;9.202;2023-03-02T05:21:57;28.73;;;17.27;;
9759;SDS011;4919;48.792;9.202;2023-03-02T05:24:42;28.87;;;16.13;;
9759;SDS011;4919;48.792;9.202;2023-03-02T05:27:27;29.53;;;16.97;;
9759;SDS011;4919;48.792;9.202;2023-03-02T05:30:12;33.23;;;19.37;;
9759;SDS011;4919;48.792;9.202;2023-03-02T05:32:57;28.23;;;16.50;;
9759;SDS011;4919;48.792;9.202;2023-03-02T05:35:42;28.73;;;17.70;;
9759;SDS011;4919;48.792;9.202;2023-03-02T05:38:27;28.97;;;17.67;;
9759;SDS011;4919;48.792;9.202;2023-03-02T05:41:12;28.77;;;17.53;;
9759;SDS011;4919;48.792;9.202;2023-03-02T05:43:58;31.23;;;17.40;;
9759;SDS011;4919;48.792;9.202;2023-03-02T05:46:42;28.93;;;17.47;;
9759;SDS011;4919;48.792;9.202;2023-03-02T05:49:27;29.27;;;17.17;;
9759;SDS011;4919;48.792;9.202;2023-03-02T05:52:12;27.33;;;16.57;;
9759;SDS011;4919;48.792;9.202;2023-03-02T05:54:57;27.27;;;17.20;;
9759;SDS011;4919;48.792;9.202;2023-03-02T05:57:43;28.23;;;16.97;;
9759;SDS011;4919;48.792;9.202;2023-03-02T06:00:28;26.47;;;16.53;;
9759;SDS011;4919;48.792;9.202;2023-03-02T06:03:14;29.97;;;17.43;;
9759;SDS011;4919;48.792;9.202;2023-03-02T06:05:59;27.37;;;16.73;;
9759;SDS011;4919;48.792;9.202;2023-03-02T06:08:44;29.33;;;16.83;;
9759;SDS011;4919;48.792;9.202;2023-03-02T06:11:29;26.73;;;15.97;;
9759;SDS011;4919;48.792;9.202;2023-03-02T06:14:13;28.23;;;15.80;;
9759;SDS011;4919;48.792;9.202;2023-03-02T06:16:58;28.10;;;16.33;;
9759;SDS011;4919;48.792;9.202;2023-03-02T06:19:43;30.90;;;16.93;;
9759;SDS011;4919;48.792;9.202;2023-03-02T06:22:28;28.93;;;17.63;;
9759;SDS011;4919;48.792;9.202;2023-03-02T06:25:14;26.03;;;15.40;;
9759;SDS011;4919;48.792;9.202;2023-03-02T06:28:02;28.40;;;16.47;;
9759;SDS011;4919;48.792;9.202;2023-03-02T06:30:47;27.63;;;15.67;;
9759;SDS011;4919;48.792;9.202;2023-03-02T06:33:32;26.50;;;16.00;;
9759;SDS011;4919;48.792;9.202;2023-03-02T06:36:17;28.17;;;16.20;;
9759;SDS011;4919;48.792;9.202;2023-03-02T06:39:02;26.77;;;17.10;;
9759;SDS011;4919;48.792;9.202;2023-03-02T06:41:48;28.77;;;17.47;;
9759;SDS011;4919;48.792;9.202;2023-03-02T06:44:32;30.30;;;17.70;;
9759;SDS011;4919;48.792;9.202;2023-03-02T06:47:17;31.23;;;19.43;;
9759;SDS011;4919;48.792;9.202;2023-03-02T06:50:02;33.80;;;18.83;;
9759;SDS011;4919;48.792;9.202;2023-03-02T06:52:48;34.40;;;19.20;;
9759;SDS011;4919;48.792;9.202;2023-03-02T06:55:33;32.07;;;18.90;;
9759;SDS011;4919;48.792;9.202;2023-03-02T06:58:18;32.67;;;19.03;;
9759;SDS011;4919;48.792;9.202;2023-03-02T07:01:03;32.13;;;17.90;;
9759;SDS011;4919;48.792;9.202;2023-03-02T07:03:48;29.13;;;17.23;;
9759;SDS011;4919;48.792;9.202;2023-03-02T07:06:32;32.13;;;18.10;;
9759;SDS011;4919;48.792;9.202;2023-03-02T07:09:17;36.77;;;16.47;;
9759;SDS011;4919;48.792;9.202;2023-03-02T07:12:02;30.93;;;16.50;;
9759;SDS011;4919;48.792;9.202;2023-03-02T07:14:47;31.57;;;15.63;;
9759;SDS011;4919;48.792;9.202;2023-03-02T07:17:32;32.00;;;17.10;;
9759;SDS011;4919;48.792;9.202;2023-03-02T07:20:17;28.03;;;16.30;;
9759;SDS011;4919;48.792;9.202;2023-03-02T07:23:02;29.37;;;16.17;;
9759;SDS011;4919;48.792;9.202;2023-03-02T07:25:47;31.13;;;18.07;;
9759;SDS011;4919;48.792;9.202;2023-03-02T07:28:32;29.47;;;17.33;;
9759;SDS011;4919;48.792;9.202;2023-03-02T07:31:18;33.13;;;18.23;;
9759;SDS011;4919;48.792;9.202;2023-03-02T07:34:03;30.67;;;18.03;;
9759;SDS011;4919;48.792;9.202;2023-03-02T07:36:48;31.17;;;17.67;;
9759;SDS011;4919;48.792;9.202;2023-03-02T07:39:32;32.60;;;18.53;;
9759;SDS011;4919;48.792;9.202;2023-03-02T07:42:17;33.10;;;18.60;;
9759;SDS011;4919;48.792;9.202;2023-03-02T07:45:03;29.80;;;18.33;;
9759;SDS011;4919;48.792;9.202;2023-03-02T07:47:49;33.53;;;19.07;;
9759;SDS011;4919;48.792;9.202;2023-03-02T07:50:34;32.20;;;19.60;;
9759;SDS011;4919;48.792;9.202;2023-03-02T07:53:19;33.00;;;19.83;;
9759;SDS011;4919;48.792;9.202;2023-03-02T07:56:07;35.27;;;19.63;;
9759;SDS011;4919;48.792;9.202;2023-03-02T07:58:53;34.37;;;18.80;;
9759;SDS011;4919;48.792;9.202;2023-03-02T08:01:38;37.47;;;19.90;;
9759;SDS011;4919;48.792;9.202;2023-03-02T08:04:23;32.37;;;19.53;;
9759;SDS011;4919;48.792;9.202;2023-03-02T08:07:08;34.27;;;19.67;;
9759;SDS011;4919;48.792;9.202;2023-03-02T08:09:53;36.13;;;20.00;;
9759;SDS011;4919;48.792;9.202;2023-03-02T08:12:38;34.77;;;19.93;;
9759;SDS011;4919;48.792;9.202;2023-03-02T08:15:23;33.80;;;19.37;;
9759;SDS011;4919;48.792;9.202;2023-03-02T08:18:08;34.57;;;19.63;;
9759;SDS011;4919;48.792;9.202;2023-03-02T08:20:53;36.47;;;19.87;;
9759;SDS011;4919;48.792;9.202;2023-03-02T08:23:38;32.90;;;19.40;;
9759;SDS011;4919;48.792;9.202;2023-03-02T08:26:22;35.47;;;20.10;;
9759;SDS011;4919;48.792;9.202;2023-03-02T08:29:07;34.57;;;19.47;;
9759;SDS011;4919;48.792;9.202;2023-03-02T08:31:53;35.87;;;19.60;;
9759;SDS011;4919;48.792;9.202;2023-03-02T08:34:37;40.47;;;21.43;;
9759;SDS011;4919;48.792;9.202;2023-03-02T08:37:22;43.30;;;22.70;;
9759;SDS011;4919;48.792;9.202;2023-03-02T08:40:07;49.30;;;23.00;;
9759;SDS011;4919;48.792;9.202;2023-03-02T08:42:53;45.67;;;22.27;;
9759;SDS011;4919;48.792;9.202;2023-03-02T08:45:37;46.97;;;23.60;;
9759;SDS011;4919;48.792;9.202;2023-03-02T08:48:23;41.87;;;21.60;;
9759;SDS011;4919;48.792;9.202;2023-03-02T08:51:13;45.10;;;22.83;;
9759;SDS011;4919;48.792;9.202;2023-03-02T08:53:59;52.23;;;24.37;;
9759;SDS011;4919;48.792;9.202;2023-03-02T08:56:44;55.43;;;25.93;;
9759;SDS011;4919;48.792;9.202;2023-03-02T08:59:30;49.27;;;25.77;;
9759;SDS011;4919;48.792;9.202;2023-03-02T09:02:14;47.63;;;24.93;;
9759;SDS011;4919;48.792;9.202;2023-03-02T09:04:59;61.60;;;29.70;;
9759;SDS011;4919;48.792;9.202;2023-03-02T09:07:44;61.77;;;28.47;;
9759;SDS011;4919;48.792;9.202;2023-03-02T09:10:29;52.47;;;26.23;;
9759;SDS011;4919;48.792;9.202;2023-03-02T09:13:14;66.17;;;37.43;;
9759;SDS011;4919;48.792;9.202;2023-03-02T09:15:59;49.67;;;25.10;;
9759;SDS011;4919;48.792;9.202;2023-03-02T09:18:44;49.77;;;24.83;;
9759;SDS011;4919;48.792;9.202;2023-03-02T09:21:29;90.80;;;46.30;;
9759;SDS011;4919;48.792;9.202;2023-03-02T09:24:14;147.43;;;71.17;;
9759;SDS011;4919;48.792;9.202;2023-03-02T09:26:59;77.63;;;38.93;;
9759;SDS011;4919;48.792;9.202;2023-03-02T09:29:44;74.57;;;39.43;;
9759;SDS011;4919;48.792;9.202;2023-03-02T09:32:29;65.07;;;29.80;;
9759;SDS011;4919;48.792;9.202;2023-03-02T09:35:14;60.20;;;27.93;;
9759;SDS011;4919;48.792;9.202;2023-03-02T09:37:58;59.17;;;28.93;;
9759;SDS011;4919;48.792;9.202;2023-03-02T09:41:33;54.90;;;28.33;;
9759;SDS011;4919;48.792;9.202;2023-03-02T09:46:46;48.93;;;25.77;;
9759;SDS011;4919;48.792;9.202;2023-03-02T09:56:17;53.13;;;25.77;;
9759;SDS011;4919;48.792;9.202;2023-03-02T09:59:20;53.97;;;26.50;;
9759;SDS011;4919;48.792;9.202;2023-03-02T10:05:11;61.83;;;29.87;;
9759;SDS011;4919;48.792;9.202;2023-03-02T10:08:03;62.10;;;29.63;;
9759;SDS011;4919;48.792;9.202;2023-03-02T10:17:00;67.53;;;33.77;;
9759;SDS011;4919;48.792;9.202;2023-03-02T10:20:00;55.83;;;27.87;;
9759;SDS011;4919;48.792;9.202;2023-03-02T10:22:50;47.53;;;24.87;;
9759;SDS011;4919;48.792;9.202;2023-03-02T10:25:45;50.43;;;25.63;;
9759;SDS011;4919;48.792;9.202;2023-03-02T10:28:40;50.70;;;25.47;;
9759;SDS011;4919;48.792;9.202;2023-03-02T10:31:31;62.00;;;31.70;;
9759;SDS011;4919;48.792;9.202;2023-03-02T10:34:24;69.57;;;33.10;;
9759;SDS011;4919;48.792;9.202;2023-03-02T10:37:19;75.33;;;34.23;;
9759;SDS011;4919;48.792;9.202;2023-03-02T10:40:08;68.60;;;33.27;;
9759;SDS011;4919;48.792;9.202;2023-03-02T10:43:14;71.67;;;34.30;;
9759;SDS011;4919;48.792;9.202;2023-03-02T10:46:09;90.63;;;44.37;;
9759;SDS011;4919;48.792;9.202;2023-03-02T10:48:56;61.83;;;30.63;;
9759;SDS011;4919;48.792;9.202;2023-03-02T10:51:42;55.03;;;28.17;;
9759;SDS011;4919;48.792;9.202;2023-03-02T10:54:27;55.63;;;27.60;;
9759;SDS011;4919;48.792;9.202;2023-03-02T10:58:00;53.83;;;28.83;;
9759;SDS011;4919;48.792;9.202;2023-03-02T11:00:21;52.83;;;28.97;;
9759;SDS011;4919;48.792;9.202;2023-03-02T11:03:20;45.00;;;25.77;;
9759;SDS011;4919;48.792;9.202;2023-03-02T11:06:16;46.57;;;25.77;;
9759;SDS011;4919;48.792;9.202;2023-03-02T11:09:06;50.67;;;27.53;;
9759;SDS011;4919;48.792;9.202;2023-03-02T11:11:52;49.97;;;26.17;;
9759;SDS011;4919;48.792;9.202;2023-03-02T11:14:39;44.97;;;24.57;;
9759;SDS011;4919;48.792;9.202;2023-03-02T11:17:28;41.47;;;23.00;;
9759;SDS011;4919;48.792;9.202;2023-03-02T11:20:22;51.33;;;25.90;;
9759;SDS011;4919;48.792;9.202;2023-03-02T11:23:21;47.23;;;27.33;;
9759;SDS011;4919;48.792;9.202;2023-03-02T11:32:17;45.70;;;25.50;;
9759;SDS011;4919;48.792;9.202;2023-03-02T11:35:09;44.20;;;24.93;;
9759;SDS011;4919;48.792;9.202;2023-03-02T11:38:03;44.30;;;24.90;;
9759;SDS011;4919;48.792;9.202;2023-03-02T11:40:57;44.70;;;26.30;;
9759;SDS011;4919;48.792;9.202;2023-03-02T11:43:47;35.20;;;19.93;;
9759;SDS011;4919;48.792;9.202;2023-03-02T11:46:32;29.30;;;16.70;;
9759;SDS011;4919;48.792;9.202;2023-03-02T11:49:22;31.43;;;17.30;;
9759;SDS011;4919;48.792;9.202;2023-03-02T11:52:22;29.80;;;16.13;;
9759;SDS011;4919;48.792;9.202;2023-03-02T11:57:55;24.53;;;16.07;;
9759;SDS011;4919;48.792;9.202;2023-03-02T12:00:43;29.60;;;16.73;;
9759;SDS011;4919;48.792;9.202;2023-03-02T12:09:37;25.67;;;16.27;;
9759;SDS011;4919;48.792;9.202;2023-03-02T12:12:38;26.87;;;15.40;;
9759;SDS011;4919;48.792;9.202;2023-03-02T12:15:26;22.70;;;13.80;;
9759;SDS011;4919;48.792;9.202;2023-03-02T12:18:30;23.77;;;13.37;;
9759;SDS011;4919;48.792;9.202;2023-03-02T12:21:25;22.57;;;12.77;;
9759;SDS011;4919;48.792;9.202;2023-03-02T12:35:44;21.17;;;12.77;;
9759;SDS011;4919;48.792;9.202;2023-03-02T12:38:31;17.93;;;11.97;;
9759;SDS011;4919;48.792;9.202;2023-03-02T12:44:46;20.53;;;11.63;;
9759;SDS011;4919;48.792;9.202;2023-03-02T12:47:44;52.03;;;28.63;;
9759;SDS011;4919;48.792;9.202;2023-03-02T12:50:32;29.20;;;17.47;;
9759;SDS011;4919;48.792;9.202;2023-03-02T12:53:21;21.10;;;13.83;;
9759;SDS011;4919;48.792;9.202;2023-03-02T12:56:06;21.70;;;12.57;;
9759;SDS011;4919;48.792;9.202;2023-03-02T12:58:51;19.10;;;12.13;;
9759;SDS011;4919;48.792;9.202;2023-03-02T13:01:37;21.53;;;12.87;;
9759;SDS011;4919;48.792;9.202;2023-03-02T13:04:23;19.60;;;12.23;;
9759;SDS011;4919;48.792;9.202;2023-03-02T13:07:16;23.43;;;12.87;;
9759;SDS011;4919;48.792;9.202;2023-03-02T13:10:05;19.53;;;12.10;;
9759;SDS011;4919;48.792;9.202;2023-03-02T13:12:59;20.43;;;11.87;;
9759;SDS011;4919;48.792;9.202;2023-03-02T13:15:52;23.93;;;11.90;;
9759;SDS011;4919;48.792;9.202;2023-03-02T13:18:39;18.10;;;11.30;;
9759;SDS011;4919;48.792;9.202;2023-03-02T13:21:28;19.53;;;12.10;;
9759;SDS011;4919;48.792;9.202;2023-03-02T13:30:10;17.03;;;10.53;;
9759;SDS011;4919;48.792;9.202;2023-03-02T13:33:15;17.23;;;11.53;;
9759;SDS011;4919;48.792;9.202;2023-03-02T13:36:04;19.47;;;11.77;;
9759;SDS011;4919;48.792;9.202;2023-03-02T13:38:54;17.00;;;10.33;;
9759;SDS011;4919;48.792;9.202;2023-03-02T13:41:50;20.57;;;11.10;;
9759;SDS011;4919;48.792;9.202;2023-03-02T13:44:39;19.20;;;11.17;;
9759;SDS011;4919;48.792;9.202;2023-03-02T13:47:24;16.53;;;10.67;;
9759;SDS011;4919;48.792;9.202;2023-03-02T13:50:15;20.30;;;11.60;;
9759;SDS011;4919;48.792;9.202;2023-03-02T13:53:01;18.17;;;11.30;;
9759;SDS011;4919;48.792;9.202;2023-03-02T13:55:47;19.67;;;10.60;;
9759;SDS011;4919;48.792;9.202;2023-03-02T13:58:34;19.10;;;10.83;;
9759;SDS011;4919;48.792;9.202;2023-03-02T14:01:20;15.70;;;9.80;;
9759;SDS011;4919;48.792;9.202;2023-03-02T14:04:05;15.37;;;9.37;;
9759;SDS011;4919;48.792;9.202;2023-03-02T14:06:53;17.97;;;10.17;;
9759;SDS011;4919;48.792;9.202;2023-03-02T14:09:38;16.33;;;10.13;;
9759;SDS011;4919;48.792;9.202;2023-03-02T14:12:27;17.70;;;11.43;;
9759;SDS011;4919;48.792;9.202;2023-03-02T14:15:14;19.73;;;10.87;;
9759;SDS011;4919;48.792;9.202;2023-03-02T14:17:59;18.20;;;10.33;;
9759;SDS011;4919;48.792;9.202;2023-03-02T14:20:44;18.23;;;10.87;;
9759;SDS011;4919;48.792;9.202;2023-03-02T14:23:29;17.73;;;11.37;;
9759;SDS011;4919;48.792;9.202;2023-03-02T14:31:59;27.80;;;14.80;;
9759;SDS011;4919;48.792;9.202;2023-03-02T14:34:44;20.60;;;12.63;;
9759;SDS011;4919;48.792;9.202;2023-03-02T14:37:29;26.13;;;14.40;;
9759;SDS011;4919;48.792;9.202;2023-03-02T14:43:17;24.23;;;13.23;;
9759;SDS011;4919;48.792;9.202;2023-03-02T14:46:02;25.00;;;13.57;;
9759;SDS011;4919;48.792;9.202;2023-03-02T14:48:46;23.83;;;13.70;;
9759;SDS011;4919;48.792;9.202;2023-03-02T14:51:32;23.33;;;13.47;;
9759;SDS011;4919;48.792;9.202;2023-03-02T14:54:19;27.70;;;14.00;;
9759;SDS011;4919;48.792;9.202;2023-03-02T14:57:04;28.80;;;14.57;;
9759;SDS011;4919;48.792;9.202;2023-03-02T14:59:56;30.20;;;15.77;;
9759;SDS011;4919;48.792;9.202;2023-03-02T15:02:41;31.60;;;15.03;;
9759;SDS011;4919;48.792;9.202;2023-03-02T15:05:26;29.77;;;16.00;;
9759;SDS011;4919;48.792;9.202;2023-03-02T15:08:12;25.77;;;15.67;;
9759;SDS011;4919;48.792;9.202;2023-03-02T15:10:57;23.20;;;13.97;;
9759;SDS011;4919;48.792;9.202;2023-03-02T15:13:42;29.40;;;15.90;;
9759;SDS011;4919;48.792;9.202;2023-03-02T15:16:27;27.50;;;15.83;;
9759;SDS011;4919;48.792;9.202;2023-03-02T15:19:12;26.10;;;16.90;;
9759;SDS011;4919;48.792;9.202;2023-03-02T15:21:57;24.30;;;15.40;;
9759;SDS011;4919;48.792;9.202;2023-03-02T15:24:42;20.63;;;13.50;;
9759;SDS011;4919;48.792;9.202;2023-03-02T15:27:27;23.60;;;13.83;;
9759;SDS011;4919;48.792;9.202;2023-03-02T15:30:12;36.77;;;18.33;;
9759;SDS011;4919;48.792;9.202;2023-03-02T15:32:57;53.57;;;25.27;;
9759;SDS011;4919;48.792;9.202;2023-03-02T15:35:41;57.37;;;27.37;;
9759;SDS011;4919;48.792;9.202;2023-03-02T15:38:26;72.43;;;37.33;;
9759;SDS011;4919;48.792;9.202;2023-03-02T15:41:12;58.13;;;27.03;;
9759;SDS011;4919;48.792;9.202;2023-03-02T15:43:57;57.87;;;25.70;;
9759;SDS011;4919;48.792;9.202;2023-03-02T15:46:42;59.40;;;26.47;;
9759;SDS011;4919;48.792;9.202;2023-03-02T15:49:27;57.67;;;26.67;;
9759;SDS011;4919;48.792;9.202;2023-03-02T15:52:11;55.00;;;25.33;;
9759;SDS011;4919;48.792;9.202;2023-03-02T15:54:56;59.90;;;25.47;;
9759;SDS011;4919;48.792;9.202;2023-03-02T15:57:41;61.97;;;27.20;;
9759;SDS011;4919;48.792;9.202;2023-03-02T16:00:26;58.57;;;26.37;;
9759;SDS011;4919;48.792;9.202;2023-03-02T16:03:11;65.93;;;26.70;;
9759;SDS011;4919;48.792;9.202;2023-03-02T16:05:56;72.20;;;29.47;;
9759;SDS011;4919;48.792;9.202;2023-03-02T16:08:41;84.73;;;35.10;;
9759;SDS011;4919;48.792;9.202;2023-03-02T16:11:26;90.63;;;38.83;;
9759;SDS011;4919;48.792;9.202;2023-03-02T16:14:11;85.87;;;33.33;;
9759;SDS011;4919;48.792;9.202;2023-03-02T16:16:55;90.57;;;36.33;;
9759;SDS011;4919;48.792;9.202;2023-03-02T16:19:40;80.33;;;31.83;;
9759;SDS011;4919;48.792;9.202;2023-03-02T16:22:25;79.93;;;32.70;;
9759;SDS011;4919;48.792;9.202;2023-03-02T16:25:10;77.67;;;30.67;;
9759;SDS011;4919;48.792;9.202;2023-03-02T16:27:55;79.10;;;31.30;;
9759;SDS011;4919;48.792;9.202;2023-03-02T16:30:40;81.20;;;33.20;;
9759;SDS011;4919;48.792;9.202;2023-03-02T16:33:26;81.67;;;32.23;;
9759;SDS011;4919;48.792;9.202;2023-03-02T16:36:11;84.13;;;32.43;;
9759;SDS011;4919;48.792;9.202;2023-03-02T16:38:57;85.60;;;31.60;;
9759;SDS011;4919;48.792;9.202;2023-03-02T16:41:42;92.03;;;33.97;;
9759;SDS011;4919;48.792;9.202;2023-03-02T16:44:28;87.03;;;32.97;;
9759;SDS011;4919;48.792;9.202;2023-03-02T16:47:12;91.23;;;36.03;;
9759;SDS011;4919;48.792;9.202;2023-03-02T16:49:58;87.40;;;31.80;;
9759;SDS011;4919;48.792;9.202;2023-03-02T16:52:42;95.17;;;35.07;;
9759;SDS011;4919;48.792;9.202;2023-03-02T16:55:27;93.80;;;35.60;;
9759;SDS011;4919;48.792;9.202;2023-03-02T16:58:12;107.27;;;35.63;;
9759;SDS011;4919;48.792;9.202;2023-03-02T17:00:57;109.70;;;38.33;;
9759;SDS011;4919;48.792;9.202;2023-03-02T17:03:43;108.37;;;39.03;;
9759;SDS011;4919;48.792;9.202;2023-03-02T17:06:28;107.07;;;37.10;;
9759;SDS011;4919;48.792;9.202;2023-03-02T17:09:13;112.03;;;37.83;;
9759;SDS011;4919;48.792;9.202;2023-03-02T17:11:58;113.60;;;39.40;;
9759;SDS011;4919;48.792;9.202;2023-03-02T17:14:43;122.03;;;40.63;;
9759;SDS011;4919;48.792;9.202;2023-03-02T17:17:28;121.10;;;39.40;;
9759;SDS011;4919;48.792;9.202;2023-03-02T17:20:12;125.13;;;39.30;;
9759;SDS011;4919;48.792;9.202;2023-03-02T17:22:57;116.27;;;37.33;;
9759;SDS011;4919;48.792;9.202;2023-03-02T17:25:42;120.70;;;39.00;;
9759;SDS011;4919;48.792;9.202;2023-03-02T17:28:27;116.57;;;37.90;;
9759;SDS011;4919;48.792;9.202;2023-03-02T17:31:12;122.30;;;39.70;;
9759;SDS011;4919;48.792;9.202;2023-03-02T17:33:57;113.33;;;38.47;;
9759;SDS011;4919;48.792;9.202;2023-03-02T17:36:42;112.30;;;37.50;;
9759;SDS011;4919;48.792;9.202;2023-03-02T17:39:27;119.40;;;38.23;;
9759;SDS011;4919;48.792;9.202;2023-03-02T17:42:11;112.67;;;36.70;;
9759;SDS011;4919;48.792;9.202;2023-03-02T17:44:56;106.97;;;36.90;;
9759;SDS011;4919;48.792;9.202;2023-03-02T17:47:41;117.67;;;37.47;;
9759;SDS011;4919;48.792;9.202;2023-03-02T17:50:26;119.53;;;38.27;;
9759;SDS011;4919;48.792;9.202;2023-03-02T17:53:11;121.87;;;36.83;;
9759;SDS011;4919;48.792;9.202;2023-03-02T17:55:56;122.03;;;38.80;;
9759;SDS011;4919;48.792;9.202;2023-03-02T17:58:41;105.37;;;34.10;;
9759;SDS011;4919;48.792;9.202;2023-03-02T18:01:27;104.53;;;34.37;;
9759;SDS011;4919;48.792;9.202;2023-03-02T18:04:12;97.43;;;32.83;;
9759;SDS011;4919;48.792;9.202;2023-03-02T18:06:57;98.03;;;32.43;;